createdAt,value
2018-07-07T00:00:31.336Z,1022.5
2018-07-07T00:01:40.197Z,1022.45
2018-07-07T00:02:49.333Z,1022.47
2018-07-07T00:03:58.469Z,1022.5
2018-07-07T00:05:07.434Z,1022.49
2018-07-07T00:06:16.572Z,1022.49
2018-07-07T00:07:25.434Z,1022.51
2018-07-07T00:08:34.292Z,1022.52
2018-07-07T00:09:43.153Z,1022.57
2018-07-07T00:10:52.014Z,1022.6
2018-07-07T00:12:00.879Z,1022.6
2018-07-07T00:13:09.740Z,1022.58
2018-07-07T00:14:18.873Z,1022.6
2018-07-07T00:15:27.736Z,1022.62
2018-07-07T00:16:37.253Z,1022.57
2018-07-07T00:17:46.113Z,1022.54
2018-07-07T00:18:55.256Z,1022.53
2018-07-07T00:20:04.118Z,1022.52
2018-07-07T00:21:12.980Z,1022.52
2018-07-07T00:22:21.840Z,1022.52
2018-07-07T00:23:30.703Z,1022.57
2018-07-07T00:24:39.564Z,1022.55
2018-07-07T00:25:48.703Z,1022.56
2018-07-07T00:26:57.562Z,1022.57
2018-07-07T00:28:06.423Z,1022.56
2018-07-07T00:29:15.281Z,1022.53
2018-07-07T00:30:24.144Z,1022.54
2018-07-07T00:31:33.005Z,1022.56
2018-07-07T00:32:41.866Z,1022.55
2018-07-07T00:33:51.004Z,1022.54
2018-07-07T00:34:59.866Z,1022.54
2018-07-07T00:36:08.725Z,1022.57
2018-07-07T00:37:17.589Z,1022.54
2018-07-07T00:38:26.449Z,1022.59
2018-07-07T00:39:35.307Z,1022.57
2018-07-07T00:40:44.446Z,1022.59
2018-07-07T00:41:53.310Z,1022.59
2018-07-07T00:43:02.444Z,1022.57
2018-07-07T00:44:11.307Z,1022.56
2018-07-07T00:45:20.323Z,1022.59
2018-07-07T00:46:29.457Z,1022.6
2018-07-07T00:47:38.316Z,1022.64
2018-07-07T00:48:47.458Z,1022.61
2018-07-07T00:49:56.596Z,1022.61
2018-07-07T00:51:05.835Z,1022.61
2018-07-07T00:52:14.694Z,1022.6
2018-07-07T00:53:23.553Z,1022.64
2018-07-07T00:54:32.481Z,1022.61
2018-07-07T00:55:41.275Z,1022.63
2018-07-07T00:56:50.186Z,1022.57
2018-07-07T00:57:59.608Z,1022.62
2018-07-07T00:59:08.743Z,1022.59
2018-07-07T01:00:17.879Z,1022.67
2018-07-07T01:01:27.300Z,1022.63
2018-07-07T01:02:36.157Z,1022.61
2018-07-07T01:03:45.290Z,1022.65
2018-07-07T01:04:54.152Z,1022.6
2018-07-07T01:06:03.016Z,1022.6
2018-07-07T01:07:11.876Z,1022.64
2018-07-07T01:08:20.742Z,1022.61
2018-07-07T01:09:29.646Z,1022.62
2018-07-07T01:10:38.457Z,1022.61
2018-07-07T01:11:47.317Z,1022.6
2018-07-07T01:12:56.453Z,1022.59
2018-07-07T01:14:05.312Z,1022.59
2018-07-07T01:15:14.172Z,1022.59
2018-07-07T01:16:23.029Z,1022.59
2018-07-07T01:17:31.892Z,1022.57
2018-07-07T01:18:40.750Z,1022.59
2018-07-07T01:19:50.322Z,1022.62
2018-07-07T01:20:59.179Z,1022.59
2018-07-07T01:22:08.039Z,1022.62
2018-07-07T01:23:16.898Z,1022.6
2018-07-07T01:24:25.763Z,1022.59
2018-07-07T01:25:34.903Z,1022.59
2018-07-07T01:26:43.767Z,1022.57
2018-07-07T01:27:52.624Z,1022.56
2018-07-07T01:29:01.760Z,1022.56
2018-07-07T01:30:10.618Z,1022.57
2018-07-07T01:31:19.478Z,1022.56
2018-07-07T01:32:28.337Z,1022.56
2018-07-07T01:33:37.198Z,1022.58
2018-07-07T01:34:46.338Z,1022.54
2018-07-07T01:35:55.478Z,1022.51
2018-07-07T01:37:04.341Z,1022.53
2018-07-07T01:38:13.755Z,1022.5
2018-07-07T01:39:22.616Z,1022.51
2018-07-07T01:40:31.475Z,1022.47
2018-07-07T01:41:40.338Z,1022.53
2018-07-07T01:42:49.198Z,1022.49
2018-07-07T01:43:58.060Z,1022.5
2018-07-07T01:45:06.922Z,1022.44
2018-07-07T01:46:16.063Z,1022.52
2018-07-07T01:47:24.924Z,1022.49
2018-07-07T01:48:33.839Z,1022.5
2018-07-07T01:49:42.994Z,1022.58
2018-07-07T01:50:52.131Z,1022.58
2018-07-07T01:52:01.267Z,1022.58
2018-07-07T01:53:10.402Z,1022.55
2018-07-07T01:54:19.262Z,1022.51
2018-07-07T01:55:28.396Z,1022.57
2018-07-07T01:56:37.257Z,1022.59
2018-07-07T01:57:46.115Z,1022.56
2018-07-07T01:58:54.973Z,1022.54
2018-07-07T02:00:03.837Z,1022.57
2018-07-07T02:01:12.695Z,1022.52
2018-07-07T02:02:21.556Z,1022.51
2018-07-07T02:03:30.419Z,1022.58
2018-07-07T02:04:39.283Z,1022.57
2018-07-07T02:05:48.142Z,1022.55
2018-07-07T02:06:57.001Z,1022.56
2018-07-07T02:08:06.184Z,1022.62
2018-07-07T02:09:15.042Z,1022.58
2018-07-07T02:10:24.216Z,1022.58
2018-07-07T02:11:33.042Z,1022.58
2018-07-07T02:12:41.902Z,1022.57
2018-07-07T02:13:50.763Z,1022.57
2018-07-07T02:14:59.899Z,1022.55
2018-07-07T02:16:08.757Z,1022.52
2018-07-07T02:17:18.046Z,1022.59
2018-07-07T02:18:26.906Z,1022.62
2018-07-07T02:19:35.765Z,1022.59
2018-07-07T02:20:44.901Z,1022.62
2018-07-07T02:21:53.759Z,1022.61
2018-07-07T02:23:02.720Z,1022.64
2018-07-07T02:24:12.134Z,1022.62
2018-07-07T02:25:20.997Z,1022.63
2018-07-07T02:26:29.858Z,1022.65
2018-07-07T02:27:38.715Z,1022.63
2018-07-07T02:28:47.924Z,1022.63
2018-07-07T02:29:56.783Z,1022.64
2018-07-07T02:31:05.647Z,1022.64
2018-07-07T02:32:14.786Z,1022.66
2018-07-07T02:33:25.074Z,1022.63
2018-07-07T02:34:34.499Z,1022.61
2018-07-07T02:35:43.636Z,1022.62
2018-07-07T02:36:53.334Z,1022.65
2018-07-07T02:38:03.041Z,1022.65
2018-07-07T02:39:12.171Z,1022.63
2018-07-07T02:40:21.463Z,1022.69
2018-07-07T02:41:30.616Z,1022.7
2018-07-07T02:42:40.021Z,1022.66
2018-07-07T02:43:49.214Z,1022.71
2018-07-07T02:44:58.350Z,1022.66
2018-07-07T02:46:07.765Z,1022.64
2018-07-07T02:47:16.625Z,1022.63
2018-07-07T02:48:25.483Z,1022.64
2018-07-07T02:49:34.621Z,1022.63
2018-07-07T02:50:44.034Z,1022.61
2018-07-07T02:51:53.173Z,1022.62
2018-07-07T02:53:02.039Z,1022.65
2018-07-07T02:54:10.901Z,1022.67
2018-07-07T02:55:20.597Z,1022.67
2018-07-07T02:56:30.280Z,1022.69
2018-07-07T02:57:39.771Z,1022.64
2018-07-07T02:58:48.912Z,1022.65
2018-07-07T02:59:58.333Z,1022.72
2018-07-07T03:01:07.198Z,1022.66
2018-07-07T03:02:16.061Z,1022.67
2018-07-07T03:03:25.103Z,1022.69
2018-07-07T03:04:34.160Z,1022.69
2018-07-07T03:05:43.020Z,1022.68
2018-07-07T03:06:52.155Z,1022.74
2018-07-07T03:08:01.292Z,1022.69
2018-07-07T03:09:10.429Z,1022.68
2018-07-07T03:10:19.853Z,1022.7
2018-07-07T03:11:28.999Z,1022.69
2018-07-07T03:12:38.136Z,1022.7
2018-07-07T03:13:47.000Z,1022.69
2018-07-07T03:14:56.563Z,1022.66
2018-07-07T03:16:05.422Z,1022.71
2018-07-07T03:17:14.286Z,1022.65
2018-07-07T03:18:23.147Z,1022.63
2018-07-07T03:19:32.010Z,1022.65
2018-07-07T03:20:41.221Z,1022.64
2018-07-07T03:21:50.365Z,1022.69
2018-07-07T03:22:59.787Z,1022.66
2018-07-07T03:24:08.926Z,1022.7
2018-07-07T03:25:18.347Z,1022.71
2018-07-07T03:26:27.918Z,1022.73
2018-07-07T03:27:36.776Z,1022.75
2018-07-07T03:28:45.634Z,1022.72
2018-07-07T03:29:54.496Z,1022.79
2018-07-07T03:31:03.631Z,1022.78
2018-07-07T03:32:13.391Z,1022.82
2018-07-07T03:33:22.815Z,1022.75
2018-07-07T03:34:31.949Z,1022.84
2018-07-07T03:35:40.810Z,1022.79
2018-07-07T03:36:49.671Z,1022.8
2018-07-07T03:37:58.534Z,1022.84
2018-07-07T03:39:07.668Z,1022.81
2018-07-07T03:40:16.527Z,1022.83
2018-07-07T03:41:25.388Z,1022.85
2018-07-07T03:42:34.523Z,1022.83
2018-07-07T03:43:43.533Z,1022.81
2018-07-07T03:44:52.394Z,1022.8
2018-07-07T03:46:01.253Z,1022.8
2018-07-07T03:47:10.112Z,1022.83
2018-07-07T03:48:19.072Z,1022.86
2018-07-07T03:49:28.206Z,1022.85
2018-07-07T03:50:37.350Z,1022.86
2018-07-07T03:51:46.212Z,1022.82
2018-07-07T03:52:55.074Z,1022.87
2018-07-07T03:54:03.940Z,1022.86
2018-07-07T03:55:13.160Z,1022.88
2018-07-07T03:56:22.018Z,1022.85
2018-07-07T03:57:30.876Z,1022.84
2018-07-07T03:58:39.736Z,1022.84
2018-07-07T03:59:48.596Z,1022.83
2018-07-07T04:00:57.609Z,1022.81
2018-07-07T04:02:06.467Z,1022.86
2018-07-07T04:03:15.327Z,1022.83
2018-07-07T04:04:24.187Z,1022.85
2018-07-07T04:05:33.052Z,1022.86
2018-07-07T04:06:41.911Z,1022.87
2018-07-07T04:07:50.772Z,1022.9
2018-07-07T04:08:59.631Z,1022.89
2018-07-07T04:10:08.494Z,1022.9
2018-07-07T04:11:17.353Z,1022.89
2018-07-07T04:12:26.496Z,1022.89
2018-07-07T04:13:35.634Z,1022.92
2018-07-07T04:14:44.492Z,1022.96
2018-07-07T04:15:53.627Z,1022.94
2018-07-07T04:17:02.763Z,1022.92
2018-07-07T04:18:12.333Z,1022.95
2018-07-07T04:19:21.191Z,1022.94
2018-07-07T04:20:30.051Z,1022.95
2018-07-07T04:21:38.912Z,1022.99
2018-07-07T04:22:48.323Z,1023.03
2018-07-07T04:23:57.185Z,1023.01
2018-07-07T04:25:06.628Z,1022.98
2018-07-07T04:26:15.487Z,1023
2018-07-07T04:27:24.641Z,1023.02
2018-07-07T04:28:33.501Z,1023.02
2018-07-07T04:29:42.360Z,1023.02
2018-07-07T04:30:51.223Z,1023.03
2018-07-07T04:32:00.361Z,1023.03
2018-07-07T04:33:09.217Z,1023.03
2018-07-07T04:34:18.079Z,1023.03
2018-07-07T04:35:26.936Z,1023.02
2018-07-07T04:36:35.798Z,1023.04
2018-07-07T04:37:44.657Z,1022.96
2018-07-07T04:38:53.518Z,1022.97
2018-07-07T04:40:02.377Z,1023.01
2018-07-07T04:41:11.237Z,1023
2018-07-07T04:42:20.100Z,1022.99
2018-07-07T04:43:28.960Z,1022.99
2018-07-07T04:44:37.820Z,1023
2018-07-07T04:45:46.957Z,1022.99
2018-07-07T04:46:56.558Z,1023.04
2018-07-07T04:48:05.700Z,1023
2018-07-07T04:49:14.559Z,1023.03
2018-07-07T04:50:23.416Z,1023
2018-07-07T04:51:32.277Z,1022.97
2018-07-07T04:52:41.289Z,1022.99
2018-07-07T04:53:50.157Z,1022.93
2018-07-07T04:54:59.571Z,1022.92
2018-07-07T04:56:08.434Z,1022.94
2018-07-07T04:57:17.292Z,1022.91
2018-07-07T04:58:26.500Z,1022.93
2018-07-07T04:59:35.915Z,1022.91
2018-07-07T05:00:44.776Z,1022.93
2018-07-07T05:01:53.638Z,1022.98
2018-07-07T05:03:02.774Z,1022.97
2018-07-07T05:04:11.786Z,1022.99
2018-07-07T05:05:20.648Z,1022.98
2018-07-07T05:06:29.787Z,1022.99
2018-07-07T05:07:38.656Z,1022.95
2018-07-07T05:08:47.507Z,1022.98
2018-07-07T05:09:56.469Z,1022.99
2018-07-07T05:11:05.608Z,1022.99
2018-07-07T05:12:14.748Z,1023.03
2018-07-07T05:13:23.613Z,1023.02
2018-07-07T05:14:33.026Z,1023.08
2018-07-07T05:15:41.887Z,1023.05
2018-07-07T05:16:50.745Z,1023.05
2018-07-07T05:18:00.157Z,1023.05
2018-07-07T05:19:09.296Z,1023.06
2018-07-07T05:20:18.158Z,1023.08
2018-07-07T05:21:27.447Z,1023.07
2018-07-07T05:22:36.583Z,1023.08
2018-07-07T05:23:45.443Z,1023.08
2018-07-07T05:24:54.309Z,1023.1
2018-07-07T05:26:03.179Z,1023.09
2018-07-07T05:27:12.043Z,1023.09
2018-07-07T05:28:20.902Z,1023.13
2018-07-07T05:29:30.041Z,1023.11
2018-07-07T05:30:38.902Z,1023.12
2018-07-07T05:31:48.055Z,1023.12
2018-07-07T05:32:57.062Z,1023.05
2018-07-07T05:34:05.923Z,1023.06
2018-07-07T05:35:14.784Z,1023.01
2018-07-07T05:36:23.645Z,1023.06
2018-07-07T05:37:32.506Z,1023.07
2018-07-07T05:38:41.718Z,1023.11
2018-07-07T05:39:50.582Z,1023.08
2018-07-07T05:40:59.443Z,1023.1
2018-07-07T05:42:08.312Z,1023.07
2018-07-07T05:43:17.177Z,1023.15
2018-07-07T05:44:26.601Z,1023.13
2018-07-07T05:45:35.738Z,1023.14
2018-07-07T05:46:44.881Z,1023.15
2018-07-07T05:47:54.019Z,1023.17
2018-07-07T05:49:02.886Z,1023.22
2018-07-07T05:50:11.750Z,1023.22
2018-07-07T05:51:20.613Z,1023.19
2018-07-07T05:52:29.473Z,1023.16
2018-07-07T05:53:38.614Z,1023.2
2018-07-07T05:54:47.476Z,1023.25
2018-07-07T05:55:56.336Z,1023.19
2018-07-07T05:57:05.200Z,1023.12
2018-07-07T05:58:14.064Z,1023.17
2018-07-07T05:59:23.201Z,1023.19
2018-07-07T06:00:32.064Z,1023.17
2018-07-07T06:01:41.076Z,1023.23
2018-07-07T06:02:49.937Z,1023.21
2018-07-07T06:03:58.798Z,1023.2
2018-07-07T06:05:07.662Z,1023.27
2018-07-07T06:06:16.524Z,1023.28
2018-07-07T06:07:25.538Z,1023.27
2018-07-07T06:08:34.678Z,1023.24
2018-07-07T06:09:43.544Z,1023.3
2018-07-07T06:10:52.406Z,1023.3
2018-07-07T06:12:01.266Z,1023.26
2018-07-07T06:13:10.561Z,1023.29
2018-07-07T06:14:19.747Z,1023.28
2018-07-07T06:15:29.260Z,1023.36
2018-07-07T06:16:38.121Z,1023.31
2018-07-07T06:17:47.255Z,1023.3
2018-07-07T06:18:56.118Z,1023.29
2018-07-07T06:20:04.982Z,1023.35
2018-07-07T06:21:13.844Z,1023.32
2018-07-07T06:22:22.983Z,1023.31
2018-07-07T06:23:31.849Z,1023.31
2018-07-07T06:24:41.059Z,1023.36
2018-07-07T06:25:49.917Z,1023.35
2018-07-07T06:26:59.054Z,1023.38
2018-07-07T06:28:08.195Z,1023.39
2018-07-07T06:29:17.058Z,1023.37
2018-07-07T06:30:25.924Z,1023.33
2018-07-07T06:31:34.785Z,1023.3
2018-07-07T06:32:43.646Z,1023.35
2018-07-07T06:33:52.510Z,1023.36
2018-07-07T06:35:01.647Z,1023.41
2018-07-07T06:36:10.860Z,1023.37
2018-07-07T06:37:19.760Z,1023.39
2018-07-07T06:38:29.353Z,1023.41
2018-07-07T06:39:38.211Z,1023.43
2018-07-07T06:40:47.075Z,1023.43
2018-07-07T06:41:55.934Z,1023.45
2018-07-07T06:43:04.796Z,1023.5
2018-07-07T06:44:13.665Z,1023.46
2018-07-07T06:45:22.522Z,1023.45
2018-07-07T06:46:31.385Z,1023.52
2018-07-07T06:47:40.542Z,1023.62
2018-07-07T06:48:49.405Z,1023.48
2018-07-07T06:49:58.270Z,1023.48
2018-07-07T06:51:07.131Z,1023.45
2018-07-07T06:52:15.993Z,1023.48
2018-07-07T06:53:24.854Z,1023.41
2018-07-07T06:54:33.714Z,1023.45
2018-07-07T06:55:42.574Z,1023.47
2018-07-07T06:56:51.436Z,1023.46
2018-07-07T06:58:00.304Z,1023.46
2018-07-07T06:59:09.167Z,1023.48
2018-07-07T07:00:18.467Z,1023.45
2018-07-07T07:01:27.325Z,1023.47
2018-07-07T07:02:36.190Z,1023.52
2018-07-07T07:03:45.333Z,1023.54
2018-07-07T07:04:54.197Z,1023.57
2018-07-07T07:06:03.059Z,1023.52
2018-07-07T07:07:11.919Z,1023.52
2018-07-07T07:08:20.781Z,1023.6
2018-07-07T07:09:29.925Z,1023.6
2018-07-07T07:10:38.791Z,1023.61
2018-07-07T07:11:47.704Z,1023.56
2018-07-07T07:12:56.843Z,1023.6
2018-07-07T07:14:05.705Z,1023.63
2018-07-07T07:15:14.567Z,1023.61
2018-07-07T07:16:23.581Z,1023.62
2018-07-07T07:17:32.451Z,1023.61
2018-07-07T07:18:41.309Z,1023.59
2018-07-07T07:19:50.198Z,1023.62
2018-07-07T07:20:59.632Z,1023.61
2018-07-07T07:22:08.647Z,1023.68
2018-07-07T07:23:17.786Z,1023.66
2018-07-07T07:24:26.924Z,1023.67
2018-07-07T07:25:35.792Z,1023.7
2018-07-07T07:26:44.654Z,1023.73
2018-07-07T07:27:53.518Z,1023.72
2018-07-07T07:29:02.933Z,1023.7
2018-07-07T07:30:11.798Z,1023.72
2018-07-07T07:31:20.661Z,1023.74
2018-07-07T07:32:29.525Z,1023.76
2018-07-07T07:33:38.695Z,1023.81
2018-07-07T07:34:47.835Z,1023.8
2018-07-07T07:35:56.984Z,1023.8
2018-07-07T07:37:06.127Z,1023.8
2018-07-07T07:38:14.991Z,1023.86
2018-07-07T07:39:24.006Z,1023.83
2018-07-07T07:40:32.870Z,1023.9
2018-07-07T07:41:41.733Z,1023.81
2018-07-07T07:42:50.600Z,1023.8
2018-07-07T07:43:59.463Z,1023.78
2018-07-07T07:45:08.769Z,1023.81
2018-07-07T07:46:17.632Z,1023.83
2018-07-07T07:47:26.777Z,1023.81
2018-07-07T07:48:35.638Z,1023.88
2018-07-07T07:49:44.505Z,1023.77
2018-07-07T07:50:53.369Z,1023.94
2018-07-07T07:52:02.511Z,1023.85
2018-07-07T07:53:11.375Z,1023.89
2018-07-07T07:54:20.272Z,1023.89
2018-07-07T07:55:29.120Z,1023.89
2018-07-07T07:56:38.542Z,1023.94
2018-07-07T07:57:47.688Z,1023.9
2018-07-07T07:58:56.851Z,1023.92
2018-07-07T08:00:06.407Z,1023.87
2018-07-07T08:01:15.274Z,1023.88
2018-07-07T08:02:24.135Z,1023.94
2018-07-07T08:03:32.999Z,1023.93
2018-07-07T08:04:41.883Z,1023.91
2018-07-07T08:05:51.085Z,1023.89
2018-07-07T08:06:59.948Z,1023.91
2018-07-07T08:08:08.813Z,1023.94
2018-07-07T08:09:18.230Z,1023.95
2018-07-07T08:10:27.093Z,1024.01
2018-07-07T08:11:35.956Z,1023.96
2018-07-07T08:12:45.099Z,1023.91
2018-07-07T08:13:53.963Z,1023.89
2018-07-07T08:15:03.116Z,1023.89
2018-07-07T08:16:11.982Z,1023.87
2018-07-07T08:17:21.402Z,1023.91
2018-07-07T08:18:30.268Z,1023.94
2018-07-07T08:19:39.281Z,1023.96
2018-07-07T08:20:48.148Z,1023.91
2018-07-07T08:21:57.026Z,1023.9
2018-07-07T08:23:06.181Z,1024.03
2018-07-07T08:24:15.047Z,1024.03
2018-07-07T08:25:23.912Z,1023.98
2018-07-07T08:26:32.776Z,1023.96
2018-07-07T08:27:41.642Z,1023.92
2018-07-07T08:28:50.782Z,1023.9
2018-07-07T08:29:59.648Z,1023.91
2018-07-07T08:31:08.514Z,1023.89
2018-07-07T08:32:17.380Z,1023.94
2018-07-07T08:33:26.516Z,1023.91
2018-07-07T08:34:35.462Z,1023.92
2018-07-07T08:35:44.243Z,1023.92
2018-07-07T08:36:53.486Z,1024.02
2018-07-07T08:38:02.356Z,1024
2018-07-07T08:39:11.496Z,1024.01
2018-07-07T08:40:20.638Z,1024.01
2018-07-07T08:41:29.504Z,1024
2018-07-07T08:42:38.651Z,1024.02
2018-07-07T08:43:47.514Z,1024.12
2018-07-07T08:44:56.378Z,1024.05
2018-07-07T08:46:05.521Z,1024.11
2018-07-07T08:47:14.384Z,1024.05
2018-07-07T08:48:23.403Z,1023.99
2018-07-07T08:49:32.544Z,1024
2018-07-07T08:50:41.417Z,1024
2018-07-07T08:51:50.565Z,1024.06
2018-07-07T08:52:59.702Z,1024.06
2018-07-07T08:54:08.720Z,1024.08
2018-07-07T08:55:18.030Z,1024.02
2018-07-07T08:56:27.445Z,1024.01
2018-07-07T08:57:36.312Z,1024.03
2018-07-07T08:58:45.176Z,1024.1
2018-07-07T08:59:54.042Z,1024.03
2018-07-07T09:01:03.188Z,1024.04
2018-07-07T09:02:12.066Z,1024.1
2018-07-07T09:03:20.919Z,1024.12
2018-07-07T09:04:29.894Z,1024.11
2018-07-07T09:05:38.760Z,1024.08
2018-07-07T09:06:47.627Z,1024.13
2018-07-07T09:07:56.769Z,1024.11
2018-07-07T09:09:05.634Z,1024.07
2018-07-07T09:10:14.781Z,1024.12
2018-07-07T09:11:23.646Z,1024.06
2018-07-07T09:12:32.513Z,1024.08
2018-07-07T09:13:41.381Z,1024.19
2018-07-07T09:14:50.244Z,1024.07
2018-07-07T09:15:59.110Z,1024.09
2018-07-07T09:17:08.265Z,1024.11
2018-07-07T09:18:17.411Z,1024.08
2018-07-07T09:19:26.276Z,1024
2018-07-07T09:20:35.425Z,1024.03
2018-07-07T09:21:44.305Z,1024.12
2018-07-07T09:22:53.449Z,1024.05
2018-07-07T09:24:02.315Z,1024.17
2018-07-07T09:25:11.191Z,1024.09
2018-07-07T09:26:20.067Z,1024.1
2018-07-07T09:27:29.090Z,1024.08
2018-07-07T09:28:38.604Z,1024.12
2018-07-07T09:29:48.318Z,1024.08
2018-07-07T09:30:58.943Z,1024.16
2018-07-07T09:32:09.281Z,1024.06
2018-07-07T09:33:18.734Z,1024.16
2018-07-07T09:34:27.875Z,1024.09
2018-07-07T09:35:37.025Z,1024.07
2018-07-07T09:36:45.884Z,1024.13
2018-07-07T09:37:54.750Z,1024.08
2018-07-07T09:39:04.168Z,1024.1
2018-07-07T09:40:13.034Z,1024.07
2018-07-07T09:41:21.909Z,1024.06
2018-07-07T09:42:30.939Z,1024.07
2018-07-07T09:43:40.090Z,1024.09
2018-07-07T09:44:49.228Z,1024.11
2018-07-07T09:45:58.098Z,1024.12
2018-07-07T09:47:06.964Z,1024.09
2018-07-07T09:48:15.885Z,1024.08
2018-07-07T09:49:25.029Z,1024.11
2018-07-07T09:50:34.170Z,1024.26
2018-07-07T09:51:43.037Z,1024.09
2018-07-07T09:52:51.901Z,1024.15
2018-07-07T09:54:01.143Z,1024.1
2018-07-07T09:55:10.007Z,1024.13
2018-07-07T09:56:19.177Z,1024.17
2018-07-07T09:57:29.121Z,1024.08
2018-07-07T09:58:37.991Z,1024.09
2018-07-07T09:59:47.015Z,1024.1
2018-07-07T10:00:55.955Z,1024.16
2018-07-07T10:02:05.129Z,1024.13
2018-07-07T10:03:14.000Z,1024.11
2018-07-07T10:04:22.865Z,1024.16
2018-07-07T10:05:32.328Z,1024.06
2018-07-07T10:06:41.181Z,1024.12
2018-07-07T10:07:50.059Z,1024.03
2018-07-07T10:08:58.917Z,1024.03
2018-07-07T10:10:07.783Z,1024.03
2018-07-07T10:11:16.798Z,1024.08
2018-07-07T10:12:25.662Z,1024.01
2018-07-07T10:13:34.886Z,1023.97
2018-07-07T10:14:43.674Z,1024.03
2018-07-07T10:15:52.541Z,1024.02
2018-07-07T10:17:01.405Z,1024.02
2018-07-07T10:18:10.272Z,1024.03
2018-07-07T10:19:19.146Z,1024
2018-07-07T10:20:28.000Z,1024.01
2018-07-07T10:21:36.867Z,1024.01
2018-07-07T10:22:45.730Z,1023.99
2018-07-07T10:23:54.595Z,1024.04
2018-07-07T10:25:03.746Z,1023.94
2018-07-07T10:26:13.170Z,1023.89
2018-07-07T10:27:22.626Z,1023.88
2018-07-07T10:28:31.774Z,1024.08
2018-07-07T10:29:41.234Z,1024.01
2018-07-07T10:30:50.812Z,1024
2018-07-07T10:31:59.731Z,1024.1
2018-07-07T10:33:08.632Z,1023.92
2018-07-07T10:34:17.496Z,1023.93
2018-07-07T10:35:26.387Z,1023.91
2018-07-07T10:36:35.253Z,1023.93
2018-07-07T10:37:44.403Z,1023.94
2018-07-07T10:38:53.268Z,1023.89
2018-07-07T10:40:02.138Z,1023.85
2018-07-07T10:41:11.003Z,1023.84
2018-07-07T10:42:19.869Z,1023.92
2018-07-07T10:43:29.290Z,1023.88
2018-07-07T10:44:38.176Z,1023.86
2018-07-07T10:45:47.273Z,1023.93
2018-07-07T10:46:57.155Z,1023.93
2018-07-07T10:48:06.314Z,1023.94
2018-07-07T10:49:15.180Z,1023.98
2018-07-07T10:50:24.453Z,1023.99
2018-07-07T10:51:33.319Z,1023.93
2018-07-07T10:52:42.182Z,1023.98
2018-07-07T10:53:51.049Z,1023.96
2018-07-07T10:54:59.920Z,1024.01
2018-07-07T10:56:08.928Z,1023.95
2018-07-07T10:57:17.837Z,1024.08
2018-07-07T10:58:26.965Z,1023.94
2018-07-07T10:59:36.265Z,1023.96
2018-07-07T11:00:45.276Z,1024.08
2018-07-07T11:01:54.985Z,1024.04
2018-07-07T11:03:04.187Z,1023.97
2018-07-07T11:04:13.070Z,1023.98
2018-07-07T11:05:22.357Z,1024.03
2018-07-07T11:06:31.268Z,1024.06
2018-07-07T11:07:40.430Z,1024.05
2018-07-07T11:08:49.845Z,1023.99
2018-07-07T11:09:58.988Z,1023.96
2018-07-07T11:11:08.035Z,1023.95
2018-07-07T11:12:16.900Z,1023.97
2018-07-07T11:13:25.765Z,1024.01
2018-07-07T11:14:34.632Z,1024.05
2018-07-07T11:15:43.710Z,1024.03
2018-07-07T11:16:52.573Z,1024.07
2018-07-07T11:18:01.438Z,1024.08
2018-07-07T11:19:10.316Z,1023.98
2018-07-07T11:20:19.238Z,1023.91
2018-07-07T11:21:28.106Z,1024
2018-07-07T11:22:36.971Z,1023.95
2018-07-07T11:23:45.837Z,1023.95
2018-07-07T11:24:54.703Z,1023.93
2018-07-07T11:26:04.122Z,1023.87
2018-07-07T11:27:13.035Z,1023.95
2018-07-07T11:28:21.904Z,1023.95
2018-07-07T11:29:30.770Z,1023.95
2018-07-07T11:30:39.934Z,1024.05
2018-07-07T11:31:48.799Z,1023.94
2018-07-07T11:32:57.665Z,1023.99
2018-07-07T11:34:06.682Z,1023.89
2018-07-07T11:35:15.551Z,1023.92
2018-07-07T11:36:24.498Z,1023.94
2018-07-07T11:37:33.289Z,1023.9
2018-07-07T11:38:42.151Z,1023.9
2018-07-07T11:39:51.173Z,1023.94
2018-07-07T11:41:00.592Z,1023.92
2018-07-07T11:42:09.463Z,1023.89
2018-07-07T11:43:18.394Z,1023.88
2018-07-07T11:44:27.564Z,1023.82
2018-07-07T11:45:36.565Z,1023.79
2018-07-07T11:46:45.828Z,1023.87
2018-07-07T11:47:54.696Z,1023.84
2018-07-07T11:49:04.306Z,1023.9
2018-07-07T11:50:13.972Z,1023.84
2018-07-07T11:51:23.814Z,1023.89
2018-07-07T11:52:33.226Z,1023.92
2018-07-07T11:53:43.187Z,1023.85
2018-07-07T11:54:53.294Z,1023.88
2018-07-07T11:56:02.889Z,1024.01
2018-07-07T11:57:13.620Z,1023.98
2018-07-07T11:58:23.153Z,1023.9
2018-07-07T11:59:32.616Z,1023.92
2018-07-07T12:00:41.485Z,1023.88
2018-07-07T12:01:50.400Z,1023.88
2018-07-07T12:02:59.607Z,1023.82
2018-07-07T12:04:08.479Z,1023.91
2018-07-07T12:05:17.346Z,1024.04
2018-07-07T12:06:26.223Z,1024
2018-07-07T12:07:35.095Z,1024
2018-07-07T12:08:44.389Z,1023.97
2018-07-07T12:09:53.258Z,1024.05
2018-07-07T12:11:02.404Z,1023.97
2018-07-07T12:12:11.270Z,1023.91
2018-07-07T12:13:20.140Z,1023.87
2018-07-07T12:14:29.489Z,1023.98
2018-07-07T12:15:38.651Z,1024.02
2018-07-07T12:16:47.531Z,1023.98
2018-07-07T12:17:56.403Z,1023.92
2018-07-07T12:19:05.274Z,1023.89
2018-07-07T12:20:14.154Z,1024.05
2018-07-07T12:21:23.029Z,1023.95
2018-07-07T12:22:32.186Z,1024.01
2018-07-07T12:23:41.059Z,1024.04
2018-07-07T12:24:49.988Z,1024.01
2018-07-07T12:25:58.861Z,1024.03
2018-07-07T12:27:07.733Z,1023.96
2018-07-07T12:28:16.878Z,1024
2018-07-07T12:29:25.752Z,1023.86
2018-07-07T12:30:34.636Z,1023.92
2018-07-07T12:31:43.506Z,1023.99
2018-07-07T12:32:52.385Z,1023.95
2018-07-07T12:34:01.821Z,1023.88
2018-07-07T12:35:10.967Z,1023.96
2018-07-07T12:36:19.840Z,1023.89
2018-07-07T12:37:28.817Z,1023.98
2018-07-07T12:38:37.691Z,1024.06
2018-07-07T12:39:46.842Z,1023.95
2018-07-07T12:40:55.859Z,1023.94
2018-07-07T12:42:04.943Z,1023.94
2018-07-07T12:43:14.505Z,1023.94
2018-07-07T12:44:23.829Z,1023.9
2018-07-07T12:45:32.711Z,1023.94
2018-07-07T12:46:41.588Z,1023.88
2018-07-07T12:47:50.468Z,1023.87
2018-07-07T12:48:59.378Z,1023.84
2018-07-07T12:50:08.303Z,1023.97
2018-07-07T12:51:17.194Z,1023.94
2018-07-07T12:52:26.084Z,1023.96
2018-07-07T12:53:35.085Z,1024.03
2018-07-07T12:54:44.099Z,1024.05
2018-07-07T12:55:53.036Z,1023.95
2018-07-07T12:57:01.921Z,1024.05
2018-07-07T12:58:11.361Z,1023.97
2018-07-07T12:59:20.850Z,1024.18
2018-07-07T13:00:29.739Z,1023.99
2018-07-07T13:01:38.625Z,1024
2018-07-07T13:02:47.827Z,1023.93
2018-07-07T13:03:56.726Z,1023.95
2018-07-07T13:05:05.880Z,1024.08
2018-07-07T13:06:14.878Z,1024.04
2018-07-07T13:07:23.754Z,1024.03
2018-07-07T13:08:32.666Z,1023.95
2018-07-07T13:09:41.567Z,1023.99
2018-07-07T13:10:50.492Z,1024.03
2018-07-07T13:11:59.679Z,1024
2018-07-07T13:13:08.584Z,1024.03
2018-07-07T13:14:17.495Z,1024.01
2018-07-07T13:15:26.702Z,1024.02
2018-07-07T13:16:35.596Z,1024.09
2018-07-07T13:17:44.596Z,1024.06
2018-07-07T13:18:53.519Z,1024.1
2018-07-07T13:20:02.438Z,1023.99
2018-07-07T13:21:11.697Z,1023.93
2018-07-07T13:22:20.867Z,1024.07
2018-07-07T13:23:30.207Z,1024.1
2018-07-07T13:24:39.153Z,1024.12
2018-07-07T13:25:48.306Z,1024.09
2018-07-07T13:26:57.227Z,1024.06
2018-07-07T13:28:06.426Z,1024.09
2018-07-07T13:29:15.502Z,1024.08
2018-07-07T13:30:24.660Z,1024
2018-07-07T13:31:33.904Z,1024.05
2018-07-07T13:32:42.895Z,1024.13
2018-07-07T13:33:52.132Z,1024.13
2018-07-07T13:35:01.458Z,1024.08
2018-07-07T13:36:10.337Z,1024
2018-07-07T13:37:19.340Z,1024.01
2018-07-07T13:38:28.215Z,1023.99
2018-07-07T13:39:37.919Z,1024.08
2018-07-07T13:40:47.508Z,1024.01
2018-07-07T13:41:56.477Z,1024.05
2018-07-07T13:43:05.673Z,1024.03
2018-07-07T13:44:14.792Z,1024.05
2018-07-07T13:45:23.785Z,1024.01
2018-07-07T13:46:33.470Z,1024.01
2018-07-07T13:47:42.392Z,1024.12
2018-07-07T13:48:51.471Z,1024.11
2018-07-07T13:50:00.472Z,1024.06
2018-07-07T13:51:09.924Z,1024.06
2018-07-07T13:52:18.831Z,1024.1
2018-07-07T13:53:28.036Z,1024.12
2018-07-07T13:54:37.938Z,1024.08
2018-07-07T13:55:46.837Z,1024.02
2018-07-07T13:56:55.734Z,1024.01
2018-07-07T13:58:04.916Z,1024.1
2018-07-07T13:59:13.848Z,1024.1